Time;durP1;ratioP1;P1;durP2;ratioP2;P2;SDS_P1;SDS_P2;PMS_P1;PMS_P2;Temp;Humidity;BMP_temperature;BMP_pressure;BME280_temperature;BME280_humidity;BME280_pressure;Samples;Min_cycle;Max_cycle;Signal;HPM_P1;HPM_P2
2021/09/02 00:02:13;;;;;;;;;24.25;14.00;;;;;18.90;100.00;102270.56;5078315;28;45337;-68
2021/09/02 00:04:39;;;;;;;;;17.25;15.50;;;;;18.83;100.00;102255.72;5078780;28;45390;-68
2021/09/02 00:07:04;;;;;;;;;15.50;13.50;;;;;18.87;100.00;102253.88;5072951;28;45459;-68
2021/09/02 00:09:29;;;;;;;;;17.50;16.50;;;;;18.80;100.00;102252.31;5060483;28;45429;-68
2021/09/02 00:11:56;;;;;;;;;16.25;16.25;;;;;18.83;100.00;102265.44;5077894;28;45408;-69
2021/09/02 00:14:21;;;;;;;;;17.75;15.75;;;;;18.77;100.00;102262.94;5078990;28;45420;-69
2021/09/02 00:16:47;;;;;;;;;16.50;15.25;;;;;18.78;100.00;102268.19;5078137;28;47047;-69
2021/09/02 00:19:13;;;;;;;;;19.50;16.00;;;;;18.71;100.00;102257.78;5078400;28;45456;-69
2021/09/02 00:21:38;;;;;;;;;17.25;14.75;;;;;18.65;100.00;102250.88;5077512;28;45309;-69
2021/09/02 00:24:04;;;;;;;;;19.00;16.75;;;;;18.59;100.00;102256.28;5078554;28;45534;-68
2021/09/02 00:26:30;;;;;;;;;17.75;15.50;;;;;18.54;100.00;102248.44;5077444;28;46005;-68
2021/09/02 00:28:55;;;;;;;;;16.75;15.50;;;;;18.55;100.00;102247.53;5060126;28;45285;-70
2021/09/02 00:31:20;;;;;;;;;17.00;15.00;;;;;18.55;100.00;102255.47;5077493;28;45841;-69
2021/09/02 00:33:46;;;;;;;;;19.75;16.50;;;;;18.51;100.00;102240.56;5077558;28;45455;-68
2021/09/02 00:36:11;;;;;;;;;19.50;17.00;;;;;18.49;100.00;102238.88;5070391;28;46930;-67
2021/09/02 00:38:38;;;;;;;;;19.25;16.50;;;;;18.49;100.00;102238.88;5074912;28;45462;-68
2021/09/02 00:41:04;;;;;;;;;16.25;15.00;;;;;18.37;100.00;102221.53;5078159;28;45661;-67
2021/09/02 00:43:39;;;;;;;;;16.25;15.25;;;;;18.40;100.00;102229.38;5077796;28;45220;-67
2021/09/02 00:46:06;;;;;;;;;14.50;13.25;;;;;18.46;100.00;102244.22;5076804;28;47162;-67
2021/09/02 00:48:32;;;;;;;;;18.00;15.25;;;;;18.47;100.00;102243.31;5076623;28;45461;-68
2021/09/02 00:50:57;;;;;;;;;20.00;16.50;;;;;18.39;100.00;102230.28;5063271;28;45441;-68
2021/09/02 00:53:23;;;;;;;;;18.00;14.50;;;;;18.38;100.00;102238.25;5059500;28;45475;-67
2021/09/02 00:55:49;;;;;;;;;18.75;16.25;;;;;18.31;100.00;102232.22;5077964;28;46270;-67
2021/09/02 00:58:14;;;;;;;;;21.00;18.00;;;;;18.32;100.00;102232.19;5059259;28;46101;-67
2021/09/02 01:00:40;;;;;;;;;21.00;19.00;;;;;18.31;100.00;102235.72;5078076;28;45309;-67
2021/09/02 01:03:05;;;;;;;;;17.25;14.00;;;;;18.23;100.00;102226.25;5077568;28;45372;-67
2021/09/02 01:05:31;;;;;;;;;19.00;18.00;;;;;18.29;100.00;102248.13;5077393;28;45592;-68
2021/09/02 01:07:59;;;;;;;;;17.00;14.50;;;;;18.17;100.00;102229.03;5077610;28;45416;-68
2021/09/02 01:10:25;;;;;;;;;18.75;16.75;;;;;18.19;100.00;102238.66;5077222;28;45455;-68
2021/09/02 01:12:51;;;;;;;;;19.00;15.50;;;;;18.15;100.00;102233.50;5077919;28;45242;-68
2021/09/02 01:15:19;;;;;;;;;16.25;14.25;;;;;18.13;100.00;102232.66;5077307;28;45307;-68
2021/09/02 01:17:47;;;;;;;;;16.50;16.00;;;;;18.15;100.00;102236.13;5077440;28;45462;-68
2021/09/02 01:20:14;;;;;;;;;21.75;16.00;;;;;18.18;100.00;102244.00;5077337;28;45464;-68
2021/09/02 01:22:42;;;;;;;;;17.25;13.25;;;;;18.10;100.00;102235.34;5078033;28;45352;-68
2021/09/02 01:25:13;;;;;;;;;18.25;14.75;;;;;18.13;100.00;102238.81;5076187;28;47197;-68
2021/09/02 01:27:39;;;;;;;;;15.00;14.00;;;;;18.12;100.00;102234.44;5050711;28;45566;-69
2021/09/02 01:30:08;;;;;;;;;19.25;17.75;;;;;18.11;100.00;102231.81;5076839;28;45420;-68
2021/09/02 01:32:36;;;;;;;;;22.00;17.00;;;;;18.10;100.00;102230.06;5077135;28;45370;-68
2021/09/02 01:35:05;;;;;;;;;19.25;16.50;;;;;18.02;100.00;102217.88;5076873;28;46099;-68
2021/09/02 01:37:38;;;;;;;;;18.25;13.00;;;;;18.06;100.00;102219.53;5076309;28;45311;-68
2021/09/02 01:40:03;;;;;;;;;22.50;18.00;;;;;18.02;100.00;102220.53;5076943;28;45325;-68
2021/09/02 01:42:29;;;;;;;;;19.75;17.75;;;;;17.92;100.00;102195.22;5077043;28;45521;-69
2021/09/02 01:44:54;;;;;;;;;19.00;17.25;;;;;18.01;100.00;102213.50;5058443;28;46295;-69
2021/09/02 01:47:25;;;;;;;;;23.00;17.75;;;;;17.99;100.00;102209.16;5075810;28;45398;-69
2021/09/02 01:49:51;;;;;;;;;19.25;16.00;;;;;17.98;100.00;102215.34;5058563;28;45556;-69
2021/09/02 01:52:18;;;;;;;;;24.25;17.50;;;;;17.91;100.00;102209.31;5058890;28;45456;-71
2021/09/02 01:54:44;;;;;;;;;12.75;11.50;;;;;17.94;100.00;102219.81;5076553;28;46748;-68
2021/09/02 01:57:09;;;;;;;;;18.75;15.25;;;;;17.87;100.00;102209.41;5076708;28;45355;-69
2021/09/02 01:59:35;;;;;;;;;19.75;18.50;;;;;17.88;100.00;102211.13;5076600;28;45380;-68
2021/09/02 02:02:00;;;;;;;;;21.50;16.50;;;;;17.90;100.00;102210.22;5077031;28;45221;-69
2021/09/02 02:04:26;;;;;;;;;20.75;17.50;;;;;17.80;100.00;102194.59;5075370;28;45644;-69
2021/09/02 02:06:51;;;;;;;;;18.75;18.00;;;;;17.75;100.00;102192.03;5054642;28;45494;-69
2021/09/02 02:09:16;;;;;;;;;20.75;17.50;;;;;17.82;100.00;102209.50;5072685;28;45917;-69
2021/09/02 02:11:42;;;;;;;;;22.50;18.50;;;;;17.78;100.00;102205.19;5077426;28;45426;-68
2021/09/02 02:14:07;;;;;;;;;25.00;19.00;;;;;17.70;100.00;102194.78;5075940;28;45501;-68
2021/09/02 02:16:33;;;;;;;;;18.00;16.00;;;;;17.77;100.00;102207.84;5076204;28;45450;-69
2021/09/02 02:18:58;;;;;;;;;21.75;16.75;;;;;17.73;100.00;102196.50;5076211;28;45983;-69
2021/09/02 02:21:23;;;;;;;;;19.75;18.00;;;;;17.69;100.00;102189.53;5076704;28;45328;-68
2021/09/02 02:23:49;;;;;;;;;24.25;20.50;;;;;17.65;100.00;102193.97;5076149;28;45766;-69
2021/09/02 02:26:14;;;;;;;;;21.25;18.50;;;;;17.64;100.00;102189.56;5076298;28;45427;-68
2021/09/02 02:28:40;;;;;;;;;18.25;16.00;;;;;17.59;100.00;102177.38;5067846;28;45740;-69
2021/09/02 02:31:05;;;;;;;;;17.25;16.50;;;;;17.64;100.00;102186.94;5076032;28;45462;-68
2021/09/02 02:33:31;;;;;;;;;22.00;18.50;;;;;17.60;100.00;102182.63;5054100;28;46704;-68
2021/09/02 02:35:56;;;;;;;;;24.25;21.00;;;;;17.57;100.00;102181.81;5075828;28;45467;-68
2021/09/02 02:38:21;;;;;;;;;21.00;18.00;;;;;17.50;100.00;102180.22;5076479;28;45760;-68
2021/09/02 02:40:47;;;;;;;;;22.50;19.25;;;;;17.52;100.00;102186.31;5075515;28;45407;-69
2021/09/02 02:43:13;;;;;;;;;22.50;19.00;;;;;17.50;100.00;102189.00;5062354;28;46261;-69
2021/09/02 02:45:39;;;;;;;;;18.50;16.25;;;;;17.51;100.00;102187.22;5077023;27;45711;-69
2021/09/02 02:48:05;;;;;;;;;21.75;20.75;;;;;17.54;100.00;102192.44;5075857;28;45175;-69
2021/09/02 02:50:31;;;;;;;;;22.75;21.75;;;;;17.34;100.00;102154.09;5075458;28;45459;-69
2021/09/02 02:52:57;;;;;;;;;32.00;23.75;;;;;17.51;100.00;102181.94;5067098;28;45675;-69
2021/09/02 02:55:22;;;;;;;;;28.00;22.75;;;;;17.42;100.00;102168.00;5075980;28;45423;-69
2021/09/02 02:57:48;;;;;;;;;28.00;24.50;;;;;17.35;100.00;102160.25;5076280;28;45522;-69
2021/09/02 03:00:13;;;;;;;;;24.50;22.75;;;;;17.38;100.00;102166.34;5053894;28;45555;-69
2021/09/02 03:02:39;;;;;;;;;26.00;22.00;;;;;17.41;100.00;102165.41;5074552;28;45378;-68
2021/09/02 03:05:05;;;;;;;;;29.50;23.75;;;;;17.40;100.00;102169.81;5075848;28;45458;-68
2021/09/02 03:07:33;;;;;;;;;26.25;21.75;;;;;17.39;100.00;102168.06;5075751;28;45353;-69
2021/09/02 03:09:58;;;;;;;;;25.00;24.25;;;;;17.30;100.00;102148.91;5075726;28;45395;-69
2021/09/02 03:12:24;;;;;;;;;25.25;21.50;;;;;17.35;100.00;102170.81;5075417;28;46155;-69
2021/09/02 03:14:49;;;;;;;;;28.75;24.50;;;;;17.27;100.00;102163.03;5070305;28;45396;-69
2021/09/02 03:17:14;;;;;;;;;25.50;22.25;;;;;17.29;100.00;102171.81;5069090;28;45723;-68
2021/09/02 03:19:40;;;;;;;;;33.25;25.00;;;;;17.24;100.00;102173.66;5043297;28;45869;-68
2021/09/02 03:22:05;;;;;;;;;28.25;26.25;;;;;17.25;100.00;102172.75;5063446;28;45395;-68
2021/09/02 03:24:31;;;;;;;;;33.00;26.25;;;;;17.18;100.00;102165.84;5057731;28;45427;-68
2021/09/02 03:26:56;;;;;;;;;29.50;23.00;;;;;17.17;100.00;102171.16;5059218;28;45364;-69
2021/09/02 03:29:21;;;;;;;;;27.00;24.50;;;;;17.19;100.00;102172.84;5073275;28;45522;-69
2021/09/02 03:31:47;;;;;;;;;30.00;26.50;;;;;17.14;100.00;102172.94;5072193;28;46619;-69
2021/09/02 03:34:12;;;;;;;;;26.25;24.75;;;;;16.87;100.00;102131.25;5071665;28;45472;-69
2021/09/02 03:36:37;;;;;;;;;27.50;23.50;;;;;17.13;100.00;102179.13;5060485;28;46509;-69
2021/09/02 03:39:03;;;;;;;;;29.25;25.25;;;;;16.91;100.00;102135.56;5069662;28;45460;-68
2021/09/02 03:41:28;;;;;;;;;22.75;21.25;;;;;16.98;100.00;102138.97;5073585;28;45516;-68
2021/09/02 03:43:54;;;;;;;;;27.50;24.25;;;;;16.99;100.00;102138.94;5071796;28;45498;-69
2021/09/02 03:46:19;;;;;;;;;25.50;21.00;;;;;17.07;100.00;102150.22;5060532;28;45485;-68
2021/09/02 03:48:44;;;;;;;;;34.50;26.50;;;;;16.96;100.00;102124.91;5059772;28;45505;-68
2021/09/02 03:51:10;;;;;;;;;24.50;21.00;;;;;16.99;100.00;102128.41;5071763;28;46100;-68
2021/09/02 03:53:35;;;;;;;;;27.00;24.25;;;;;16.95;100.00;102126.69;5060363;28;45470;-69
2021/09/02 03:56:00;;;;;;;;;29.75;25.50;;;;;16.93;100.00;102127.63;5077937;28;45467;-69
2021/09/02 03:58:26;;;;;;;;;28.50;25.00;;;;;16.89;100.00;102129.44;5077901;28;45429;-68
2021/09/02 04:00:51;;;;;;;;;30.75;27.00;;;;;16.96;100.00;102135.47;5062942;28;45337;-69
2021/09/02 04:03:17;;;;;;;;;28.75;24.00;;;;;16.92;100.00;102128.50;5073697;28;45490;-68
2021/09/02 04:05:42;;;;;;;;;28.00;23.75;;;;;16.83;100.00;102130.44;5041858;28;45460;-69
2021/09/02 04:08:07;;;;;;;;;29.75;26.00;;;;;16.80;100.00;102125.22;5078672;28;45346;-69
2021/09/02 04:10:33;;;;;;;;;28.25;23.50;;;;;16.75;100.00;102121.81;5061655;28;45460;-69
2021/09/02 04:12:58;;;;;;;;;27.25;21.75;;;;;16.80;100.00;102145.44;5074979;28;45506;-69
2021/09/02 04:15:24;;;;;;;;;32.00;24.75;;;;;16.84;100.00;102161.19;5078555;28;45419;-69
2021/09/02 04:17:49;;;;;;;;;25.00;21.25;;;;;16.80;100.00;102163.91;5074719;28;45486;-69
2021/09/02 04:20:14;;;;;;;;;27.00;23.75;;;;;16.80;100.00;102170.06;5073331;28;45630;-69
2021/09/02 04:22:40;;;;;;;;;32.00;24.75;;;;;16.75;100.00;102166.63;5059364;28;45501;-68
2021/09/02 04:25:06;;;;;;;;;35.00;25.25;;;;;16.79;100.00;102170.09;5070887;28;45478;-69
2021/09/02 04:27:31;;;;;;;;;29.00;26.25;;;;;16.78;100.00;102171.00;5063283;28;45337;-69
2021/09/02 04:29:56;;;;;;;;;31.75;26.75;;;;;16.75;100.00;102166.63;5078285;28;46537;-70
2021/09/02 04:32:22;;;;;;;;;26.75;23.00;;;;;16.65;100.00;102140.41;5063981;28;45485;-69
2021/09/02 04:34:47;;;;;;;;;30.25;26.50;;;;;16.62;100.00;102133.41;5079236;27;45378;-68
2021/09/02 04:37:13;;;;;;;;;28.25;24.50;;;;;16.70;100.00;102157.03;5066331;28;45476;-69
2021/09/02 04:39:38;;;;;;;;;28.50;21.75;;;;;16.70;100.00;102159.69;5068254;28;46333;-69
2021/09/02 04:42:04;;;;;;;;;29.75;27.75;;;;;16.70;100.00;102157.91;5071734;28;45513;-69
2021/09/02 04:44:29;;;;;;;;;30.75;25.75;;;;;16.66;100.00;102155.31;5062374;28;45407;-69
2021/09/02 04:46:55;;;;;;;;;28.50;26.50;;;;;16.63;100.00;102155.38;5078259;28;45456;-69
2021/09/02 04:49:20;;;;;;;;;26.50;24.00;;;;;16.61;100.00;102162.44;5071445;28;46501;-68
2021/09/02 04:51:46;;;;;;;;;29.50;24.25;;;;;16.55;100.00;102150.25;5061688;28;45499;-68
2021/09/02 04:54:11;;;;;;;;;26.00;21.25;;;;;16.45;100.00;102132.81;5065448;28;45602;-68
2021/09/02 04:56:36;;;;;;;;;27.50;26.00;;;;;16.59;100.00;102169.50;5071827;28;45336;-68
2021/09/02 04:59:02;;;;;;;;;29.25;24.75;;;;;16.53;100.00;102152.03;5077237;28;46273;-68
2021/09/02 05:01:27;;;;;;;;;28.75;25.75;;;;;16.53;100.00;102150.25;5077862;28;45203;-68
2021/09/02 05:03:52;;;;;;;;;33.75;26.75;;;;;16.51;100.00;102153.78;5074217;28;45359;-69
2021/09/02 05:06:18;;;;;;;;;31.25;25.50;;;;;16.47;100.00;102147.72;5059331;28;45581;-68
2021/09/02 05:08:43;;;;;;;;;32.25;27.75;;;;;16.52;100.00;102161.72;5076931;28;46153;-69
2021/09/02 05:11:09;;;;;;;;;12.75;6.25;;;;;16.49;100.00;102160.84;5059295;28;45337;-69
2021/09/02 05:13:34;;;;;;;;;32.25;27.75;;;;;16.45;100.00;102149.50;5077382;28;45449;-70
2021/09/02 05:15:59;;;;;;;;;37.50;30.25;;;;;16.49;100.00;102158.22;5076708;28;45522;-70
2021/09/02 05:18:25;;;;;;;;;33.25;29.00;;;;;16.49;100.00;102160.84;5077302;28;45417;-70
2021/09/02 05:20:52;;;;;;;;;40.00;32.75;;;;;16.44;100.00;102146.88;5073700;28;45381;-69
2021/09/02 05:23:17;;;;;;;;;35.00;32.00;;;;;16.32;100.00;102126.00;5056258;28;45738;-69
2021/09/02 05:25:43;;;;;;;;;44.00;33.75;;;;;16.41;100.00;102136.41;5072181;28;45556;-69
2021/09/02 05:28:08;;;;;;;;;38.00;33.00;;;;;16.46;100.00;102153.88;5069132;28;46520;-67
2021/09/02 05:30:33;;;;;;;;;42.25;33.25;;;;;16.41;100.00;102145.19;5075313;28;45475;-68
2021/09/02 05:32:59;;;;;;;;;39.75;34.75;;;;;16.49;100.00;102161.72;5077177;28;45429;-67
2021/09/02 05:35:24;;;;;;;;;32.50;27.25;;;;;16.50;100.00;102157.31;5058319;28;45604;-67
2021/09/02 05:37:50;;;;;;;;;48.75;32.50;;;;;16.55;100.00;102155.50;5076029;28;46479;-66
2021/09/02 05:40:15;;;;;;;;;40.75;33.25;;;;;16.41;100.00;102120.59;5076897;28;45378;-66
2021/09/02 05:42:40;;;;;;;;;42.00;31.00;;;;;16.49;100.00;102132.72;5077470;28;45459;-66
2021/09/02 05:45:08;;;;;;;;;35.75;31.00;;;;;16.56;100.00;102138.78;5077396;28;45430;-67
2021/09/02 05:47:34;;;;;;;;;42.75;33.00;;;;;16.63;100.00;102147.47;5077203;28;45634;-67
2021/09/02 05:49:59;;;;;;;;;37.75;33.25;;;;;16.59;100.00;102145.78;5057166;28;45492;-67
2021/09/02 05:52:24;;;;;;;;;38.00;32.00;;;;;16.61;100.00;102150.13;5058385;28;45442;-66
2021/09/02 05:54:54;;;;;;;;;38.50;32.50;;;;;16.67;100.00;102165.88;5077391;28;45459;-65
2021/09/02 05:57:23;;;;;;;;;36.25;27.75;;;;;16.70;100.00;102155.28;5076824;28;45265;-65
2021/09/02 05:59:49;;;;;;;;;49.25;35.25;;;;;16.71;100.00;102154.38;5076476;28;45832;-66
2021/09/02 06:02:14;;;;;;;;;39.50;31.00;;;;;16.74;100.00;102156.94;5058596;28;45461;-67
2021/09/02 06:04:40;;;;;;;;;44.50;32.00;;;;;16.76;100.00;102147.28;5058167;28;45445;-67
2021/09/02 06:07:05;;;;;;;;;35.00;30.00;;;;;16.73;100.00;102138.53;5076568;28;45355;-67
2021/09/02 06:09:31;;;;;;;;;43.50;33.25;;;;;16.79;100.00;102143.72;5076317;28;45357;-67
2021/09/02 06:11:56;;;;;;;;;50.75;35.00;;;;;16.83;100.00;102143.63;5076419;28;45508;-65
2021/09/02 06:14:21;;;;;;;;;40.50;32.25;;;;;16.88;100.00;102148.81;5077004;28;45833;-66
2021/09/02 06:16:47;;;;;;;;;40.75;32.00;;;;;16.89;100.00;102144.41;5076568;28;46367;-66
2021/09/02 06:19:12;;;;;;;;;34.75;32.25;;;;;16.96;100.00;102149.53;5076339;28;45439;-66
2021/09/02 06:21:38;;;;;;;;;37.25;31.00;;;;;17.00;100.00;102153.00;5057770;28;45705;-66
2021/09/02 06:24:03;;;;;;;;;39.50;32.00;;;;;17.02;100.00;102146.81;5076124;28;45357;-67
2021/09/02 06:26:29;;;;;;;;;46.50;34.50;;;;;17.00;100.00;102145.09;5075119;28;45966;-66
2021/09/02 06:28:54;;;;;;;;;38.50;32.00;;;;;17.07;100.00;102152.84;5062208;28;45394;-67
2021/09/02 06:31:20;;;;;;;;;48.75;35.00;;;;;17.01;100.00;102139.78;5070307;28;45396;-66
2021/09/02 06:33:45;;;;;;;;;43.00;34.00;;;;;17.07;100.00;102147.59;5052769;28;45417;-66
2021/09/02 06:36:10;;;;;;;;;38.00;33.00;;;;;17.12;100.00;102152.78;5055393;28;45584;-66
2021/09/02 06:38:36;;;;;;;;;39.50;31.75;;;;;17.17;100.00;102161.47;5049911;28;45324;-67
2021/09/02 06:41:01;;;;;;;;;46.50;33.75;;;;;17.22;100.00;102169.31;5047766;28;45781;-66
2021/09/02 06:43:26;;;;;;;;;41.75;34.25;;;;;17.21;100.00;102171.09;5055986;28;45463;-66
2021/09/02 06:45:52;;;;;;;;;43.75;32.00;;;;;17.25;100.00;102178.03;5055850;28;46273;-66
2021/09/02 06:48:17;;;;;;;;;39.75;30.00;;;;;17.28;100.00;102171.84;5054878;28;45687;-66
2021/09/02 06:50:43;;;;;;;;;35.00;31.25;;;;;17.31;100.00;102167.34;5036862;28;45513;-66
2021/09/02 06:53:08;;;;;;;;;43.00;32.00;;;;;17.40;100.00;102177.72;5056085;28;45325;-66
2021/09/02 06:55:34;;;;;;;;;38.50;31.00;;;;;17.37;100.00;102156.66;5023705;28;47567;-66
2021/09/02 06:57:59;;;;;;;;;40.00;33.75;;;;;17.48;100.00;102158.25;5037359;28;45346;-66
2021/09/02 07:00:25;;;;;;;;;38.00;29.25;;;;;17.52;100.00;102163.44;5055696;28;45393;-66
2021/09/02 07:02:50;;;;;;;;;37.25;32.00;;;;;17.58;100.00;102160.66;5055400;28;45293;-66
2021/09/02 07:05:16;;;;;;;;;37.25;31.50;;;;;17.68;100.00;102166.66;5055418;28;46293;-66
2021/09/02 07:07:42;;;;;;;;;35.50;28.50;;;;;17.76;100.00;102172.66;5055242;28;45261;-66
2021/09/02 07:10:08;;;;;;;;;44.00;32.50;;;;;17.78;100.00;102162.91;5042475;28;45489;-66
2021/09/02 07:12:34;;;;;;;;;36.75;32.00;;;;;17.87;100.00;102170.63;5035674;28;45419;-67
2021/09/02 07:14:59;;;;;;;;;30.25;26.50;;;;;17.93;100.00;102162.59;5048538;28;46068;-66
2021/09/02 07:17:24;;;;;;;;;37.00;32.00;;;;;17.92;100.00;102154.69;5047453;28;45436;-67
2021/09/02 07:19:50;;;;;;;;;36.00;30.25;;;;;18.01;100.00;102163.28;5046225;28;45451;-66
2021/09/02 07:22:15;;;;;;;;;40.25;30.50;;;;;18.05;100.00;102158.78;5050478;28;45420;-65
2021/09/02 07:24:41;;;;;;;;;36.50;29.75;;;;;18.14;100.00;102168.31;5048036;28;46447;-66
2021/09/02 07:27:06;;;;;;;;;36.00;32.50;;;;;18.17;100.00;102168.22;5044361;28;45435;-67
2021/09/02 07:29:32;;;;;;;;;33.50;28.75;;;;;18.20;100.00;102171.66;5045260;28;45468;-67
2021/09/02 07:31:58;;;;;;;;;33.75;30.00;;;;;18.27;100.00;102172.38;5044255;28;45404;-67
2021/09/02 07:34:23;;;;;;;;;31.25;26.25;;;;;18.36;100.00;102174.84;5050325;28;46475;-67
2021/09/02 07:36:48;;;;;;;;;30.25;24.50;;;;;18.50;100.00;102183.28;5066085;28;45368;-66
2021/09/02 07:39:15;;;;;;;;;38.00;28.75;;;;;18.58;100.00;102175.19;5071882;28;45415;-67
2021/09/02 07:41:40;;;;;;;;;36.25;25.75;;;;;18.72;100.00;102177.50;5058427;28;45469;-67
2021/09/02 07:44:06;;;;;;;;;35.75;28.50;;;;;18.82;100.00;102184.31;5055850;28;46057;-66
2021/09/02 07:46:31;;;;;;;;;32.00;27.50;;;;;18.90;100.00;102169.09;5056464;28;45423;-66
2021/09/02 07:48:57;;;;;;;;;35.00;27.75;;;;;19.14;100.00;102175.53;5056627;28;45266;-67
2021/09/02 07:51:22;;;;;;;;;33.75;26.75;;;;;19.31;100.00;102175.94;5056801;28;45411;-66
2021/09/02 07:53:48;;;;;;;;;30.50;25.00;;;;;19.39;100.00;102157.19;5056032;28;46130;-66
2021/09/02 07:56:14;;;;;;;;;29.00;26.00;;;;;19.66;100.00;102167.00;5056363;28;45473;-66
2021/09/02 07:58:41;;;;;;;;;31.25;27.00;;;;;19.88;100.00;102165.47;5056087;28;45367;-66
2021/09/02 08:01:10;;;;;;;;;27.75;23.00;;;;;20.07;100.00;102154.28;5056769;28;45417;-66
2021/09/02 08:03:37;;;;;;;;;31.00;25.75;;;;;20.29;100.00;102159.78;5059522;28;45680;-66
2021/09/02 08:06:02;;;;;;;;;24.00;21.75;;;;;20.28;100.00;102129.75;5059732;28;45269;-66
2021/09/02 08:08:27;;;;;;;;;26.50;25.00;;;;;20.65;100.00;102163.94;5059762;28;45439;-67
2021/09/02 08:10:53;;;;;;;;;31.25;29.25;;;;;20.77;100.00;102165.31;5059860;28;45290;-66
2021/09/02 08:13:18;;;;;;;;;32.50;24.25;;;;;20.93;100.00;102160.34;5059277;28;45969;-66
2021/09/02 08:15:44;;;;;;;;;30.00;26.25;;;;;21.07;100.00;102153.63;5059137;28;45439;-67
2021/09/02 08:18:09;;;;;;;;;31.75;28.00;;;;;21.23;100.00;102153.94;5059682;28;45375;-67
2021/09/02 08:20:35;;;;;;;;;28.00;26.00;;;;;21.31;100.00;102137.78;5058368;28;45456;-66
2021/09/02 08:23:02;;;;;;;;;32.00;27.50;;;;;21.60;100.00;102156.16;5059350;28;45642;-67
2021/09/02 08:25:30;;;;;;;;;37.75;27.50;;;;;21.84;100.00;102150.81;5059379;28;45548;-66
2021/09/02 08:27:55;;;;;;;;;29.50;26.75;;;;;22.03;100.00;102149.19;5059622;28;45601;-67
2021/09/02 08:30:23;;;;;;;;;30.00;26.50;;;;;22.21;100.00;102158.25;5059433;28;45300;-66
2021/09/02 08:32:50;;;;;;;;;25.00;24.00;;;;;22.41;100.00;102153.00;5058931;28;47503;-66
2021/09/02 08:35:22;;;;;;;;;27.50;24.25;;;;;22.57;100.00;102148.75;5059013;28;45433;-66
2021/09/02 08:37:50;;;;;;;;;30.75;25.00;;;;;22.84;100.00;102144.06;5058945;28;45672;-66
2021/09/02 08:40:18;;;;;;;;;33.00;30.00;;;;;23.02;100.00;102137.09;5059520;28;45402;-66
2021/09/02 08:42:45;;;;;;;;;29.75;24.75;;;;;23.21;100.00;102135.34;5059095;28;45681;-66
2021/09/02 08:45:10;;;;;;;;;32.75;26.75;;;;;23.39;100.00;102122.97;5058714;28;45361;-66
2021/09/02 08:47:39;;;;;;;;;28.50;23.50;;;;;23.72;100.00;102135.69;5058944;28;45641;-66
2021/09/02 08:50:05;;;;;;;;;28.50;25.25;;;;;23.89;100.00;102121.56;5059086;28;45427;-66
2021/09/02 08:52:31;;;;;;;;;25.00;23.50;;;;;24.12;100.00;102118.66;5058725;28;47233;-66
2021/09/02 08:58:18;;;;;;;;;23.25;23.00;;;;;24.60;100.00;102103.81;5058820;28;45346;-65
2021/09/02 09:00:43;;;;;;;;;28.25;24.50;;;;;24.85;100.00;102112.28;5058953;28;45624;-65
2021/09/02 09:03:09;;;;;;;;;23.00;21.25;;;;;25.11;100.00;102107.41;5058496;28;46140;-67
2021/09/02 09:05:36;;;;;;;;;26.50;21.75;;;;;25.41;100.00;102107.59;5058597;28;45426;-66
2021/09/02 09:08:08;;;;;;;;;27.50;21.75;;;;;25.71;100.00;102111.25;5058960;28;45391;-66
2021/09/02 09:10:34;;;;;;;;;25.00;22.75;;;;;26.06;100.00;102111.94;5058846;28;45355;-66
2021/09/02 09:13:02;;;;;;;;;24.00;20.75;;;;;26.48;100.00;102113.97;5057715;28;46870;-66
2021/09/02 09:15:33;;;;;;;;;25.75;21.00;;;;;26.91;100.00;102106.00;5058271;28;45364;-65
2021/09/02 09:18:18;;;;;;;;;26.00;23.00;;;;;27.43;100.00;102111.72;5058458;28;45360;-67
2021/09/02 09:20:45;;;;;;;;;28.00;23.25;;;;;27.84;99.47;102096.63;5040310;28;45421;-66
2021/09/02 09:23:10;;;;;;;;;24.50;21.25;;;;;28.05;97.32;102069.22;5058112;28;47198;-66
2021/09/02 09:25:36;;;;;;;;;22.75;21.00;;;;;28.68;95.03;102099.91;5058247;28;45424;-67
2021/09/02 09:28:01;;;;;;;;;24.75;24.50;;;;;29.13;92.88;102092.31;5058303;28;45367;-66
2021/09/02 09:30:33;;;;;;;;;19.75;18.00;;;;;29.74;92.12;102098.69;5058341;28;45333;-67
2021/09/02 09:33:05;;;;;;;;;25.50;22.25;;;;;30.34;88.21;102090.59;5058217;28;46323;-67
2021/09/02 09:35:35;;;;;;;;;25.75;22.00;;;;;30.99;85.31;102075.66;5057848;28;45257;-67
2021/09/02 09:44:44;;;;;;;;;26.25;23.00;;;;;33.58;75.85;102075.28;5057972;28;45264;-66
2021/09/02 09:47:12;;;;;;;;;21.00;20.00;;;;;33.95;74.03;102080.94;5058170;28;45433;-66
2021/09/02 09:49:47;;;;;;;;;27.25;24.75;;;;;34.06;71.83;102077.22;5057949;28;45443;-66
2021/09/02 09:52:20;;;;;;;;;21.00;19.75;;;;;33.77;72.55;102067.19;5058052;28;45226;-66
2021/09/02 09:54:45;;;;;;;;;21.75;21.00;;;;;33.31;72.38;102065.06;5057628;28;46245;-66
2021/09/02 09:57:12;;;;;;;;;23.25;21.00;;;;;33.03;72.98;102071.19;5057609;28;45264;-66
2021/09/02 09:59:40;;;;;;;;;28.00;20.75;;;;;32.77;73.31;102066.19;5057691;28;45456;-66
2021/09/02 10:02:07;;;;;;;;;24.25;21.75;;;;;32.66;74.27;102063.59;5057836;28;45501;-66
2021/09/02 10:04:34;;;;;;;;;26.75;23.75;;;;;32.72;72.75;102059.47;5057749;28;45429;-66
2021/09/02 10:07:02;;;;;;;;;25.75;23.75;;;;;33.14;72.62;102060.28;5057769;28;45273;-65
2021/09/02 10:09:29;;;;;;;;;22.00;19.25;;;;;33.69;70.81;102058.03;5057703;28;45414;-66
2021/09/02 10:11:54;;;;;;;;;21.50;20.25;;;;;34.37;68.50;102057.09;5057722;28;45292;-66
2021/09/02 10:14:20;;;;;;;;;25.00;23.50;;;;;35.05;65.69;102059.66;5057697;28;46299;-65
2021/09/02 10:16:45;;;;;;;;;23.00;19.75;;;;;35.61;65.11;102061.38;5057433;28;45376;-65
2021/09/02 10:19:10;;;;;;;;;20.25;18.75;;;;;36.21;62.91;102058.91;5057706;28;45297;-65
2021/09/02 10:21:36;;;;;;;;;25.25;21.75;;;;;37.02;59.59;102056.78;5057801;28;45365;-65
2021/09/02 10:24:39;;;;;;;;;27.25;24.25;;;;;37.95;56.64;102052.16;5056616;28;45405;-65
2021/09/02 10:27:22;;;;;;;;;31.75;28.00;;;;;38.73;54.56;102050.78;4995493;28;45427;-66
2021/09/02 10:29:49;;;;;;;;;26.25;23.00;;;;;39.19;51.63;102047.25;4995708;28;45468;-66
2021/09/02 10:32:24;;;;;;;;;20.00;18.00;;;;;39.53;50.77;102048.78;4995594;28;45336;-65
2021/09/02 10:35:12;;;;;;;;;18.25;17.75;;;;;39.97;49.54;102051.75;4994848;28;46360;-66
2021/09/02 10:37:41;;;;;;;;;19.50;17.25;;;;;40.39;47.14;102048.47;5011269;28;45546;-65
2021/09/02 10:40:16;;;;;;;;;18.75;16.75;;;;;40.99;46.29;102033.81;4995182;28;45279;-67
2021/09/02 10:42:43;;;;;;;;;20.25;19.50;;;;;41.55;44.28;102028.56;4995459;28;45637;-66
2021/09/02 10:45:27;;;;;;;;;21.25;19.50;;;;;42.16;42.95;102031.75;4995004;28;47331;-66
2021/09/02 10:48:05;;;;;;;;;20.25;18.00;;;;;42.68;42.11;102033.19;4995302;28;45547;-65
2021/09/02 10:50:42;;;;;;;;;20.00;19.25;;;;;43.23;40.91;102035.97;4995155;28;45365;-66
2021/09/02 10:53:10;;;;;;;;;17.75;16.75;;;;;43.60;37.67;102034.63;4995238;28;45307;-66
2021/09/02 10:55:59;;;;;;;;;18.00;17.25;;;;;43.84;36.85;102034.06;4995101;28;46222;-66
2021/09/02 10:58:49;;;;;;;;;17.75;17.00;;;;;44.14;36.42;102033.69;4994865;28;45452;-66
2021/09/02 11:01:21;;;;;;;;;17.50;16.75;;;;;44.25;36.24;102035.78;5031845;28;45298;-65
2021/09/02 11:03:47;;;;;;;;;16.75;14.00;;;;;44.45;34.88;102025.59;5057082;28;45440;-66
2021/09/02 11:06:13;;;;;;;;;18.75;17.00;;;;;44.73;34.66;102027.25;5056652;28;47222;-66
2021/09/02 11:12:02;;;;;;;;;20.50;17.25;;;;;45.77;33.12;102025.06;5056952;28;45285;-65
2021/09/02 11:14:27;;;;;;;;;16.00;15.00;;;;;46.34;31.74;102033.28;5057116;28;45335;-65